Inicio METAR Ruta Wind Satelite

Informe Meteorológico

Fecha: 2020/09/22 21:48:40 Local
2020.09.23 02:48 UTC


Estado: VIGENTE
Operación:VFR
Rionegro / J. M. Cordova, Colombia (SKRG) 06-08N 075-26W 2142M
2020.09.23 0200 UTC
Wind: Variable at 2 MPH (2 KT):0
Visibility: greater than 7 mile(s):0
Sky conditions: partly cloudy
Temperature: 59 F (15 C)
Dew Point: 57 F (14 C)
Relative Humidity: 93%
Pressure (altimeter): 30.29 in. Hg (1025 hPa)
ob: SKRG 230200Z VRB02KT 9999 FEW015 SCT200 15/14 A3029 NOSIG
cycle: 2

SKRG 230100Z VRB02KT 9999 FEW015 SCT200 15/11 A3028 NOSIG
SKRG 230000Z VRB02KT 9999 FEW018 SCT200 17/10 A3024 NOSIG
SKRG 222300Z 08004KT 9999 FEW018 SCT200 20/08 A3024 NOSIG
SKRG 222200Z 10008KT 9999 FEW020 SCT200 22/08 A3020 NOSIG
SKRG 222100Z 09010KT 9999 FEW023 SCT250 24/08 A3019 NOSIG

2020/09/22 18:43
TAF SKRG 221630Z 2218/2318 10012KT 9999 SCT023
BECMG 2300/2302 VRB02KT SCT017
TEMPO 2304/2306 DZ SCT013TCU
TEMPO 2309/2312 4000 BCFG BKN007
BECMG 2313/2315 09010KT SCT020 TX24/2220Z TN12/2311Z